CheckWX is a tool to help pilots better visualize weather data.  It is not intended as a substitute for an official pre-flight weather briefing.

16:55:53 UTC

KCCA METAR
Clinton Municipal Airport
Clinton, Arkansas, USA
Current

21 mins ago

KCCA 111635Z AUTO 00000KT 10SM CLR 03/M03 A3058 RMK AO2
Observed
Dec-11 @ 16:35 UTC
Visibility
10 SM
Flight Rules
VFR
Cloud Levels
  • Clear skies
Temperature
C / 37°F
Dewpoint
-3°C / 27°F
Humidity
65%
Altimeter
30.58" Hg
Pressure
1035.52 hPa
Previous

41 mins ago

KCCA 111615Z AUTO 00000KT 10SM CLR 02/M05 A3058 RMK AO2
Observed
Dec-11 @ 16:15 UTC
Visibility
10 SM
Flight Rules
VFR
Cloud Levels
  • Clear skies
Temperature
C / 36°F
Dewpoint
-5°C / 23°F
Humidity
60%
Altimeter
30.58" Hg
Pressure
1035.52 hPa
Previous

1 hour ago

KCCA 111555Z AUTO 00000KT 10SM CLR 01/M04 A3058 RMK AO2
Observed
Dec-11 @ 15:55 UTC
Visibility
10 SM
Flight Rules
VFR
Cloud Levels
  • Clear skies
Temperature
C / 34°F
Dewpoint
-4°C / 25°F
Humidity
70%
Altimeter
30.58" Hg
Pressure
1035.52 hPa